sensor_id;sensor_type;location;lat;lon;timestamp;temperature;humidity
21522;DHT22;10922;45.572;10.002;2023-04-03T00:13:11;10.70;99.90
21522;DHT22;10922;45.572;10.002;2023-04-03T00:15:38;10.70;99.90
21522;DHT22;10922;45.572;10.002;2023-04-03T00:18:05;10.70;99.90
21522;DHT22;10922;45.572;10.002;2023-04-03T00:20:31;10.70;99.90
21522;DHT22;10922;45.572;10.002;2023-04-03T00:22:57;10.70;99.90
21522;DHT22;10922;45.572;10.002;2023-04-03T00:25:23;10.60;99.90
21522;DHT22;10922;45.572;10.002;2023-04-03T00:27:49;10.50;99.90
21522;DHT22;10922;45.572;10.002;2023-04-03T00:30:16;10.50;99.90
21522;DHT22;10922;45.572;10.002;2023-04-03T00:32:42;10.50;99.90
21522;DHT22;10922;45.572;10.002;2023-04-03T00:35:08;10.30;99.90
21522;DHT22;10922;45.572;10.002;2023-04-03T00:37:34;10.30;99.90
21522;DHT22;10922;45.572;10.002;2023-04-03T00:40:00;10.30;99.90
21522;DHT22;10922;45.572;10.002;2023-04-03T00:42:26;10.40;99.90
21522;DHT22;10922;45.572;10.002;2023-04-03T00:47:23;10.50;99.90
21522;DHT22;10922;45.572;10.002;2023-04-03T00:49:50;10.40;99.90
21522;DHT22;10922;45.572;10.002;2023-04-03T00:52:20;10.50;99.90
21522;DHT22;10922;45.572;10.002;2023-04-03T00:54:48;10.50;99.90
21522;DHT22;10922;45.572;10.002;2023-04-03T00:57:15;10.50;99.90
21522;DHT22;10922;45.572;10.002;2023-04-03T00:59:48;10.40;99.90
21522;DHT22;10922;45.572;10.002;2023-04-03T01:02:15;10.50;99.90
21522;DHT22;10922;45.572;10.002;2023-04-03T01:04:43;10.60;99.90
21522;DHT22;10922;45.572;10.002;2023-04-03T01:09:37;10.50;99.90
21522;DHT22;10922;45.572;10.002;2023-04-03T01:14:42;10.80;99.90
21522;DHT22;10922;45.572;10.002;2023-04-03T01:25:52;10.40;99.90
21522;DHT22;10922;45.572;10.002;2023-04-03T01:31:00;10.50;99.90
21522;DHT22;10922;45.572;10.002;2023-04-03T01:33:28;10.40;99.90
21522;DHT22;10922;45.572;10.002;2023-04-03T01:35:54;10.30;99.90
21522;DHT22;10922;45.572;10.002;2023-04-03T01:38:19;10.30;99.90
21522;DHT22;10922;45.572;10.002;2023-04-03T01:40:46;10.10;99.90
21522;DHT22;10922;45.572;10.002;2023-04-03T01:43:11;10.00;99.90
21522;DHT22;10922;45.572;10.002;2023-04-03T01:45:37;10.00;99.90
21522;DHT22;10922;45.572;10.002;2023-04-03T01:48:04;10.20;99.90
21522;DHT22;10922;45.572;10.002;2023-04-03T01:50:30;10.20;99.90
21522;DHT22;10922;45.572;10.002;2023-04-03T01:52:56;10.00;99.90
21522;DHT22;10922;45.572;10.002;2023-04-03T01:55:21;9.90;99.90
21522;DHT22;10922;45.572;10.002;2023-04-03T01:57:47;9.90;99.90
21522;DHT22;10922;45.572;10.002;2023-04-03T02:00:13;9.80;99.90
21522;DHT22;10922;45.572;10.002;2023-04-03T02:02:39;9.80;99.90
21522;DHT22;10922;45.572;10.002;2023-04-03T02:05:05;9.80;99.90
21522;DHT22;10922;45.572;10.002;2023-04-03T02:07:31;9.70;99.90
21522;DHT22;10922;45.572;10.002;2023-04-03T02:09:57;9.70;99.90
21522;DHT22;10922;45.572;10.002;2023-04-03T02:12:23;9.60;99.90
21522;DHT22;10922;45.572;10.002;2023-04-03T02:14:48;9.40;99.90
21522;DHT22;10922;45.572;10.002;2023-04-03T02:17:14;9.30;99.90
21522;DHT22;10922;45.572;10.002;2023-04-03T02:19:40;9.40;99.90
21522;DHT22;10922;45.572;10.002;2023-04-03T02:22:06;9.30;99.90
21522;DHT22;10922;45.572;10.002;2023-04-03T02:24:32;9.40;99.90
21522;DHT22;10922;45.572;10.002;2023-04-03T02:26:57;9.40;99.90
21522;DHT22;10922;45.572;10.002;2023-04-03T02:29:23;9.50;99.90
21522;DHT22;10922;45.572;10.002;2023-04-03T02:31:49;9.50;99.90
21522;DHT22;10922;45.572;10.002;2023-04-03T02:34:15;9.60;99.90
21522;DHT22;10922;45.572;10.002;2023-04-03T02:36:41;9.80;99.90
21522;DHT22;10922;45.572;10.002;2023-04-03T02:39:07;9.80;99.90
21522;DHT22;10922;45.572;10.002;2023-04-03T02:41:32;9.80;99.90
21522;DHT22;10922;45.572;10.002;2023-04-03T02:44:02;10.00;99.90
21522;DHT22;10922;45.572;10.002;2023-04-03T02:46:28;9.90;99.90
21522;DHT22;10922;45.572;10.002;2023-04-03T02:48:54;10.10;99.90
21522;DHT22;10922;45.572;10.002;2023-04-03T02:51:19;10.10;99.90
21522;DHT22;10922;45.572;10.002;2023-04-03T02:53:45;10.10;99.90
21522;DHT22;10922;45.572;10.002;2023-04-03T02:56:13;10.10;99.90
21522;DHT22;10922;45.572;10.002;2023-04-03T02:58:39;10.00;99.90
21522;DHT22;10922;45.572;10.002;2023-04-03T03:01:04;9.90;99.90
21522;DHT22;10922;45.572;10.002;2023-04-03T03:03:30;9.80;99.90
21522;DHT22;10922;45.572;10.002;2023-04-03T03:06:12;9.90;99.90
21522;DHT22;10922;45.572;10.002;2023-04-03T03:08:38;9.90;99.90
21522;DHT22;10922;45.572;10.002;2023-04-03T03:11:04;10.00;99.90
21522;DHT22;10922;45.572;10.002;2023-04-03T03:13:31;9.90;99.90
21522;DHT22;10922;45.572;10.002;2023-04-03T03:15:57;9.90;99.90
21522;DHT22;10922;45.572;10.002;2023-04-03T03:18:22;9.80;99.90
21522;DHT22;10922;45.572;10.002;2023-04-03T03:20:55;9.90;99.90
21522;DHT22;10922;45.572;10.002;2023-04-03T03:23:22;9.90;99.90
21522;DHT22;10922;45.572;10.002;2023-04-03T03:25:48;10.10;99.90
21522;DHT22;10922;45.572;10.002;2023-04-03T03:28:14;10.00;99.90
21522;DHT22;10922;45.572;10.002;2023-04-03T03:30:40;10.00;99.90
21522;DHT22;10922;45.572;10.002;2023-04-03T03:33:06;10.00;99.90
21522;DHT22;10922;45.572;10.002;2023-04-03T03:35:32;9.90;99.90
21522;DHT22;10922;45.572;10.002;2023-04-03T03:37:58;9.80;99.90
21522;DHT22;10922;45.572;10.002;2023-04-03T03:40:23;9.60;99.90
21522;DHT22;10922;45.572;10.002;2023-04-03T03:42:49;9.70;99.90
21522;DHT22;10922;45.572;10.002;2023-04-03T03:45:15;9.70;99.90
21522;DHT22;10922;45.572;10.002;2023-04-03T03:47:40;9.80;99.90
21522;DHT22;10922;45.572;10.002;2023-04-03T03:50:06;9.80;99.90
21522;DHT22;10922;45.572;10.002;2023-04-03T03:52:32;9.80;99.90
21522;DHT22;10922;45.572;10.002;2023-04-03T03:54:58;9.70;99.90
21522;DHT22;10922;45.572;10.002;2023-04-03T03:57:23;9.80;99.90
21522;DHT22;10922;45.572;10.002;2023-04-03T03:59:49;9.90;99.90
21522;DHT22;10922;45.572;10.002;2023-04-03T04:02:17;10.00;99.90
21522;DHT22;10922;45.572;10.002;2023-04-03T04:04:42;9.90;99.90
21522;DHT22;10922;45.572;10.002;2023-04-03T04:07:08;9.90;99.90
21522;DHT22;10922;45.572;10.002;2023-04-03T04:09:33;9.80;99.90
21522;DHT22;10922;45.572;10.002;2023-04-03T04:11:59;9.50;99.90
21522;DHT22;10922;45.572;10.002;2023-04-03T04:14:25;9.20;99.90
21522;DHT22;10922;45.572;10.002;2023-04-03T04:16:51;9.20;99.90
21522;DHT22;10922;45.572;10.002;2023-04-03T04:19:16;9.00;99.90
21522;DHT22;10922;45.572;10.002;2023-04-03T04:21:42;9.10;99.90
21522;DHT22;10922;45.572;10.002;2023-04-03T04:24:08;9.00;99.90
21522;DHT22;10922;45.572;10.002;2023-04-03T04:26:34;9.10;99.90
21522;DHT22;10922;45.572;10.002;2023-04-03T04:29:00;9.10;99.90
21522;DHT22;10922;45.572;10.002;2023-04-03T04:31:26;9.00;99.90
21522;DHT22;10922;45.572;10.002;2023-04-03T04:33:52;8.90;99.90
21522;DHT22;10922;45.572;10.002;2023-04-03T04:36:17;8.80;99.90
21522;DHT22;10922;45.572;10.002;2023-04-03T04:38:43;8.80;99.90
21522;DHT22;10922;45.572;10.002;2023-04-03T04:41:09;8.50;99.90
21522;DHT22;10922;45.572;10.002;2023-04-03T04:43:35;8.50;99.90
21522;DHT22;10922;45.572;10.002;2023-04-03T04:46:06;8.30;99.90
21522;DHT22;10922;45.572;10.002;2023-04-03T04:48:32;8.10;99.90
21522;DHT22;10922;45.572;10.002;2023-04-03T04:50:58;8.30;99.90
21522;DHT22;10922;45.572;10.002;2023-04-03T04:53:24;8.50;99.90
21522;DHT22;10922;45.572;10.002;2023-04-03T04:55:50;8.60;99.90
21522;DHT22;10922;45.572;10.002;2023-04-03T04:58:17;8.40;99.90
21522;DHT22;10922;45.572;10.002;2023-04-03T05:00:42;8.50;99.90
21522;DHT22;10922;45.572;10.002;2023-04-03T05:03:08;8.80;99.90
21522;DHT22;10922;45.572;10.002;2023-04-03T05:05:34;8.90;99.90
21522;DHT22;10922;45.572;10.002;2023-04-03T05:08:01;9.00;99.90
21522;DHT22;10922;45.572;10.002;2023-04-03T05:10:27;9.00;99.90
21522;DHT22;10922;45.572;10.002;2023-04-03T05:12:53;9.10;99.90
21522;DHT22;10922;45.572;10.002;2023-04-03T05:15:18;9.20;99.90
21522;DHT22;10922;45.572;10.002;2023-04-03T05:17:44;9.10;99.90
21522;DHT22;10922;45.572;10.002;2023-04-03T05:20:10;9.20;99.90
21522;DHT22;10922;45.572;10.002;2023-04-03T05:22:36;9.10;99.90
21522;DHT22;10922;45.572;10.002;2023-04-03T05:25:03;8.90;99.90
21522;DHT22;10922;45.572;10.002;2023-04-03T05:27:29;8.80;99.90
21522;DHT22;10922;45.572;10.002;2023-04-03T05:29:55;8.80;99.90
21522;DHT22;10922;45.572;10.002;2023-04-03T05:32:24;8.80;99.90
21522;DHT22;10922;45.572;10.002;2023-04-03T05:34:52;9.10;99.90
21522;DHT22;10922;45.572;10.002;2023-04-03T05:37:18;9.40;99.90
21522;DHT22;10922;45.572;10.002;2023-04-03T05:39:44;9.60;99.90
21522;DHT22;10922;45.572;10.002;2023-04-03T05:42:09;9.60;99.90
21522;DHT22;10922;45.572;10.002;2023-04-03T05:44:40;9.50;99.90
21522;DHT22;10922;45.572;10.002;2023-04-03T05:47:06;9.60;99.90
21522;DHT22;10922;45.572;10.002;2023-04-03T05:49:32;9.60;99.90
21522;DHT22;10922;45.572;10.002;2023-04-03T05:51:58;9.80;99.90
21522;DHT22;10922;45.572;10.002;2023-04-03T05:54:26;10.00;99.90
21522;DHT22;10922;45.572;10.002;2023-04-03T05:56:52;9.90;99.90
21522;DHT22;10922;45.572;10.002;2023-04-03T05:59:18;9.80;99.90
21522;DHT22;10922;45.572;10.002;2023-04-03T06:01:45;10.00;99.90
21522;DHT22;10922;45.572;10.002;2023-04-03T06:04:12;10.10;99.90
21522;DHT22;10922;45.572;10.002;2023-04-03T06:06:52;10.10;99.90
21522;DHT22;10922;45.572;10.002;2023-04-03T06:09:20;10.10;99.90
21522;DHT22;10922;45.572;10.002;2023-04-03T06:11:46;10.30;99.90
21522;DHT22;10922;45.572;10.002;2023-04-03T06:14:12;10.40;99.90
21522;DHT22;10922;45.572;10.002;2023-04-03T06:16:38;10.50;99.90
21522;DHT22;10922;45.572;10.002;2023-04-03T06:19:05;10.60;99.90
21522;DHT22;10922;45.572;10.002;2023-04-03T06:21:32;10.80;99.90
21522;DHT22;10922;45.572;10.002;2023-04-03T06:23:57;10.90;99.90
21522;DHT22;10922;45.572;10.002;2023-04-03T06:26:23;11.00;99.90
21522;DHT22;10922;45.572;10.002;2023-04-03T06:28:49;11.20;99.90
21522;DHT22;10922;45.572;10.002;2023-04-03T06:31:18;11.30;99.90
21522;DHT22;10922;45.572;10.002;2023-04-03T06:33:43;11.40;99.90
21522;DHT22;10922;45.572;10.002;2023-04-03T06:36:10;11.50;99.90
21522;DHT22;10922;45.572;10.002;2023-04-03T06:38:37;11.70;99.90
21522;DHT22;10922;45.572;10.002;2023-04-03T06:41:02;11.70;99.90
21522;DHT22;10922;45.572;10.002;2023-04-03T06:43:28;11.80;99.90
21522;DHT22;10922;45.572;10.002;2023-04-03T06:45:54;11.90;99.90
21522;DHT22;10922;45.572;10.002;2023-04-03T06:48:20;12.00;99.90
21522;DHT22;10922;45.572;10.002;2023-04-03T06:50:46;12.20;99.90
21522;DHT22;10922;45.572;10.002;2023-04-03T06:53:11;12.20;99.90
21522;DHT22;10922;45.572;10.002;2023-04-03T06:55:37;12.20;99.90
21522;DHT22;10922;45.572;10.002;2023-04-03T06:58:03;12.30;99.90
21522;DHT22;10922;45.572;10.002;2023-04-03T07:00:29;12.40;99.90
21522;DHT22;10922;45.572;10.002;2023-04-03T07:02:55;12.50;99.90
21522;DHT22;10922;45.572;10.002;2023-04-03T07:05:23;12.50;99.90
21522;DHT22;10922;45.572;10.002;2023-04-03T07:07:49;12.60;99.90
21522;DHT22;10922;45.572;10.002;2023-04-03T07:10:15;12.60;99.90
21522;DHT22;10922;45.572;10.002;2023-04-03T07:12:41;12.70;99.90
21522;DHT22;10922;45.572;10.002;2023-04-03T07:15:08;12.70;99.90
21522;DHT22;10922;45.572;10.002;2023-04-03T07:17:34;12.80;99.90
21522;DHT22;10922;45.572;10.002;2023-04-03T07:19:59;12.90;99.90
21522;DHT22;10922;45.572;10.002;2023-04-03T07:22:25;13.00;99.90
21522;DHT22;10922;45.572;10.002;2023-04-03T07:24:51;13.00;99.90
21522;DHT22;10922;45.572;10.002;2023-04-03T07:27:16;13.10;99.90
21522;DHT22;10922;45.572;10.002;2023-04-03T07:29:43;13.10;99.90
21522;DHT22;10922;45.572;10.002;2023-04-03T07:32:09;13.20;99.90
21522;DHT22;10922;45.572;10.002;2023-04-03T07:34:35;13.30;99.90
21522;DHT22;10922;45.572;10.002;2023-04-03T07:37:01;13.40;99.90
21522;DHT22;10922;45.572;10.002;2023-04-03T07:39:28;13.50;99.90
21522;DHT22;10922;45.572;10.002;2023-04-03T07:41:54;13.60;99.90
21522;DHT22;10922;45.572;10.002;2023-04-03T07:44:22;13.70;99.90
21522;DHT22;10922;45.572;10.002;2023-04-03T07:46:48;13.70;99.90
21522;DHT22;10922;45.572;10.002;2023-04-03T07:49:16;13.70;99.90
21522;DHT22;10922;45.572;10.002;2023-04-03T07:51:43;13.80;99.90
21522;DHT22;10922;45.572;10.002;2023-04-03T07:54:09;13.80;99.90
21522;DHT22;10922;45.572;10.002;2023-04-03T07:56:35;13.90;99.90
21522;DHT22;10922;45.572;10.002;2023-04-03T07:59:01;14.10;99.90
21522;DHT22;10922;45.572;10.002;2023-04-03T08:01:26;14.10;99.90
21522;DHT22;10922;45.572;10.002;2023-04-03T08:03:52;14.20;99.90
21522;DHT22;10922;45.572;10.002;2023-04-03T08:06:18;14.30;99.90
21522;DHT22;10922;45.572;10.002;2023-04-03T08:08:48;14.30;99.90
21522;DHT22;10922;45.572;10.002;2023-04-03T08:11:15;14.40;99.90
21522;DHT22;10922;45.572;10.002;2023-04-03T08:13:40;14.40;99.90
21522;DHT22;10922;45.572;10.002;2023-04-03T08:16:13;14.50;99.90
21522;DHT22;10922;45.572;10.002;2023-04-03T08:18:42;14.60;99.90
21522;DHT22;10922;45.572;10.002;2023-04-03T08:21:11;14.50;99.90
21522;DHT22;10922;45.572;10.002;2023-04-03T08:23:39;14.70;99.90
21522;DHT22;10922;45.572;10.002;2023-04-03T08:26:08;14.80;99.90
21522;DHT22;10922;45.572;10.002;2023-04-03T08:28:34;14.80;99.90
21522;DHT22;10922;45.572;10.002;2023-04-03T08:31:05;14.60;99.90
21522;DHT22;10922;45.572;10.002;2023-04-03T08:33:32;14.80;99.90
21522;DHT22;10922;45.572;10.002;2023-04-03T08:35:59;14.80;99.90
21522;DHT22;10922;45.572;10.002;2023-04-03T08:38:25;14.80;99.90
21522;DHT22;10922;45.572;10.002;2023-04-03T08:45:57;15.00;99.90
21522;DHT22;10922;45.572;10.002;2023-04-03T08:48:39;15.10;99.90
21522;DHT22;10922;45.572;10.002;2023-04-03T08:51:15;15.00;99.90
21522;DHT22;10922;45.572;10.002;2023-04-03T08:53:55;15.10;99.90
21522;DHT22;10922;45.572;10.002;2023-04-03T08:56:23;14.90;99.90
21522;DHT22;10922;45.572;10.002;2023-04-03T08:59:00;15.00;99.90
21522;DHT22;10922;45.572;10.002;2023-04-03T09:03:57;15.10;99.90
21522;DHT22;10922;45.572;10.002;2023-04-03T09:06:31;15.10;99.90
21522;DHT22;10922;45.572;10.002;2023-04-03T09:14:24;15.40;99.90
21522;DHT22;10922;45.572;10.002;2023-04-03T09:16:57;15.40;99.90
21522;DHT22;10922;45.572;10.002;2023-04-03T09:22:22;15.40;99.90
21522;DHT22;10922;45.572;10.002;2023-04-03T09:25:25;15.30;99.90
21522;DHT22;10922;45.572;10.002;2023-04-03T09:27:53;15.20;99.90
21522;DHT22;10922;45.572;10.002;2023-04-03T09:30:24;15.40;99.90
21522;DHT22;10922;45.572;10.002;2023-04-03T09:32:52;15.50;99.90
21522;DHT22;10922;45.572;10.002;2023-04-03T09:35:27;15.60;99.90
21522;DHT22;10922;45.572;10.002;2023-04-03T09:38:02;15.50;99.90
21522;DHT22;10922;45.572;10.002;2023-04-03T09:40:51;15.60;99.90
21522;DHT22;10922;45.572;10.002;2023-04-03T09:43:28;15.70;99.90
21522;DHT22;10922;45.572;10.002;2023-04-03T09:45:56;15.60;99.90
21522;DHT22;10922;45.572;10.002;2023-04-03T09:48:50;15.70;99.90
21522;DHT22;10922;45.572;10.002;2023-04-03T09:51:16;15.70;99.90
21522;DHT22;10922;45.572;10.002;2023-04-03T09:53:43;15.80;99.90
21522;DHT22;10922;45.572;10.002;2023-04-03T09:59:28;16.10;99.90
21522;DHT22;10922;45.572;10.002;2023-04-03T10:01:31;16.30;99.90
21522;DHT22;10922;45.572;10.002;2023-04-03T10:04:16;16.50;99.90
21522;DHT22;10922;45.572;10.002;2023-04-03T10:06:47;16.50;99.90
21522;DHT22;10922;45.572;10.002;2023-04-03T10:09:28;16.50;99.90
21522;DHT22;10922;45.572;10.002;2023-04-03T10:14:22;16.60;99.90
21522;DHT22;10922;45.572;10.002;2023-04-03T10:16:59;16.60;99.90
21522;DHT22;10922;45.572;10.002;2023-04-03T10:28:16;16.40;99.90
21522;DHT22;10922;45.572;10.002;2023-04-03T10:57:29;17.10;99.90
21522;DHT22;10922;45.572;10.002;2023-04-03T11:00:03;17.20;99.90
21522;DHT22;10922;45.572;10.002;2023-04-03T11:05:47;17.50;99.90
21522;DHT22;10922;45.572;10.002;2023-04-03T11:10:49;17.70;99.90
21522;DHT22;10922;45.572;10.002;2023-04-03T11:13:45;17.50;99.90
21522;DHT22;10922;45.572;10.002;2023-04-03T11:16:09;17.50;99.90
21522;DHT22;10922;45.572;10.002;2023-04-03T11:18:43;17.60;99.90
21522;DHT22;10922;45.572;10.002;2023-04-03T11:21:20;17.80;99.90
21522;DHT22;10922;45.572;10.002;2023-04-03T11:23:47;18.00;99.90
21522;DHT22;10922;45.572;10.002;2023-04-03T11:26:19;18.30;99.90
21522;DHT22;10922;45.572;10.002;2023-04-03T11:28:46;18.00;99.90
21522;DHT22;10922;45.572;10.002;2023-04-03T11:36:54;18.50;99.90
21522;DHT22;10922;45.572;10.002;2023-04-03T11:39:29;18.60;99.90
21522;DHT22;10922;45.572;10.002;2023-04-03T11:42:06;18.80;99.90
21522;DHT22;10922;45.572;10.002;2023-04-03T11:44:39;19.30;99.90
21522;DHT22;10922;45.572;10.002;2023-04-03T11:47:06;19.10;99.90
21522;DHT22;10922;45.572;10.002;2023-04-03T11:50:04;19.00;99.90
21522;DHT22;10922;45.572;10.002;2023-04-03T12:13:38;19.80;99.90
21522;DHT22;10922;45.572;10.002;2023-04-03T12:16:06;19.80;99.90
21522;DHT22;10922;45.572;10.002;2023-04-03T12:21:23;19.70;99.90
21522;DHT22;10922;45.572;10.002;2023-04-03T12:29:10;20.20;99.90
21522;DHT22;10922;45.572;10.002;2023-04-03T12:40:15;20.80;99.90
21522;DHT22;10922;45.572;10.002;2023-04-03T12:43:05;20.90;99.90
21522;DHT22;10922;45.572;10.002;2023-04-03T12:48:27;20.30;99.90
21522;DHT22;10922;45.572;10.002;2023-04-03T12:50:54;19.90;99.90
21522;DHT22;10922;45.572;10.002;2023-04-03T12:53:24;22.50;99.90
21522;DHT22;10922;45.572;10.002;2023-04-03T12:55:56;24.90;99.90
21522;DHT22;10922;45.572;10.002;2023-04-03T12:58:25;23.20;99.90
21522;DHT22;10922;45.572;10.002;2023-04-03T13:01:11;21.50;99.90
21522;DHT22;10922;45.572;10.002;2023-04-03T13:03:45;21.70;99.90
21522;DHT22;10922;45.572;10.002;2023-04-03T13:08:54;28.70;99.90
21522;DHT22;10922;45.572;10.002;2023-04-03T13:11:24;29.20;99.90
21522;DHT22;10922;45.572;10.002;2023-04-03T13:14:03;25.50;99.90
21522;DHT22;10922;45.572;10.002;2023-04-03T13:16:31;23.20;99.90
21522;DHT22;10922;45.572;10.002;2023-04-03T13:18:57;22.50;99.90
21522;DHT22;10922;45.572;10.002;2023-04-03T13:21:27;22.80;99.90
21522;DHT22;10922;45.572;10.002;2023-04-03T13:23:59;22.60;99.90
21522;DHT22;10922;45.572;10.002;2023-04-03T13:26:31;22.00;99.90
21522;DHT22;10922;45.572;10.002;2023-04-03T13:29:04;22.00;99.90
21522;DHT22;10922;45.572;10.002;2023-04-03T13:31:35;23.20;99.90
21522;DHT22;10922;45.572;10.002;2023-04-03T13:34:17;22.70;99.90
21522;DHT22;10922;45.572;10.002;2023-04-03T13:36:50;22.00;99.90
21522;DHT22;10922;45.572;10.002;2023-04-03T13:39:30;21.70;99.90
21522;DHT22;10922;45.572;10.002;2023-04-03T13:41:58;25.30;99.90
21522;DHT22;10922;45.572;10.002;2023-04-03T13:44:30;27.70;99.90
21522;DHT22;10922;45.572;10.002;2023-04-03T13:47:20;27.80;99.90
21522;DHT22;10922;45.572;10.002;2023-04-03T13:52:48;32.90;99.90
21522;DHT22;10922;45.572;10.002;2023-04-03T13:55:24;34.40;99.90
21522;DHT22;10922;45.572;10.002;2023-04-03T13:58:00;33.70;99.90
21522;DHT22;10922;45.572;10.002;2023-04-03T14:05:49;31.10;99.90
21522;DHT22;10922;45.572;10.002;2023-04-03T14:08:17;30.40;99.90
21522;DHT22;10922;45.572;10.002;2023-04-03T14:10:43;27.70;99.90
21522;DHT22;10922;45.572;10.002;2023-04-03T14:13:14;29.20;99.90
21522;DHT22;10922;45.572;10.002;2023-04-03T14:15:40;30.90;99.90
21522;DHT22;10922;45.572;10.002;2023-04-03T14:18:06;32.40;99.90
21522;DHT22;10922;45.572;10.002;2023-04-03T14:20:32;31.40;99.90
21522;DHT22;10922;45.572;10.002;2023-04-03T14:22:57;32.00;99.90
21522;DHT22;10922;45.572;10.002;2023-04-03T14:25:23;33.90;99.90
21522;DHT22;10922;45.572;10.002;2023-04-03T14:27:53;35.20;99.90
21522;DHT22;10922;45.572;10.002;2023-04-03T14:30:32;35.60;99.90
21522;DHT22;10922;45.572;10.002;2023-04-03T14:32:59;34.80;99.90
21522;DHT22;10922;45.572;10.002;2023-04-03T14:35:26;35.40;99.90
21522;DHT22;10922;45.572;10.002;2023-04-03T14:37:53;37.40;99.90
21522;DHT22;10922;45.572;10.002;2023-04-03T14:40:23;37.80;99.90
21522;DHT22;10922;45.572;10.002;2023-04-03T14:42:49;36.10;99.90
21522;DHT22;10922;45.572;10.002;2023-04-03T14:45:16;34.90;99.90
21522;DHT22;10922;45.572;10.002;2023-04-03T14:47:51;34.80;99.90
21522;DHT22;10922;45.572;10.002;2023-04-03T14:50:23;34.30;99.90
21522;DHT22;10922;45.572;10.002;2023-04-03T14:52:52;35.30;99.90
21522;DHT22;10922;45.572;10.002;2023-04-03T14:55:20;32.70;99.90
21522;DHT22;10922;45.572;10.002;2023-04-03T14:57:50;32.00;99.90
21522;DHT22;10922;45.572;10.002;2023-04-03T15:00:18;32.80;99.90
21522;DHT22;10922;45.572;10.002;2023-04-03T15:02:50;34.20;99.90
21522;DHT22;10922;45.572;10.002;2023-04-03T15:05:16;34.20;99.90
21522;DHT22;10922;45.572;10.002;2023-04-03T15:07:47;33.60;99.90
21522;DHT22;10922;45.572;10.002;2023-04-03T15:12:42;33.90;99.90
21522;DHT22;10922;45.572;10.002;2023-04-03T15:15:09;33.90;99.90
21522;DHT22;10922;45.572;10.002;2023-04-03T15:17:36;33.40;99.90
21522;DHT22;10922;45.572;10.002;2023-04-03T15:20:03;34.80;99.90
21522;DHT22;10922;45.572;10.002;2023-04-03T15:22:36;34.40;99.90
21522;DHT22;10922;45.572;10.002;2023-04-03T15:25:01;33.50;99.90
21522;DHT22;10922;45.572;10.002;2023-04-03T15:27:28;33.70;99.90
21522;DHT22;10922;45.572;10.002;2023-04-03T15:29:54;32.70;99.90
21522;DHT22;10922;45.572;10.002;2023-04-03T15:32:20;29.80;99.90
21522;DHT22;10922;45.572;10.002;2023-04-03T15:34:46;30.40;99.90
21522;DHT22;10922;45.572;10.002;2023-04-03T15:37:11;31.90;99.90
21522;DHT22;10922;45.572;10.002;2023-04-03T15:39:37;31.00;99.90
21522;DHT22;10922;45.572;10.002;2023-04-03T15:42:03;32.30;99.90
21522;DHT22;10922;45.572;10.002;2023-04-03T15:44:33;31.90;99.90
21522;DHT22;10922;45.572;10.002;2023-04-03T15:46:59;30.50;99.90
21522;DHT22;10922;45.572;10.002;2023-04-03T15:49:25;29.10;99.90
21522;DHT22;10922;45.572;10.002;2023-04-03T15:51:52;27.90;99.90
21522;DHT22;10922;45.572;10.002;2023-04-03T15:54:17;26.70;99.90
21522;DHT22;10922;45.572;10.002;2023-04-03T15:56:43;25.30;99.90
21522;DHT22;10922;45.572;10.002;2023-04-03T15:59:10;26.20;99.90
21522;DHT22;10922;45.572;10.002;2023-04-03T16:01:36;27.50;99.90
21522;DHT22;10922;45.572;10.002;2023-04-03T16:04:07;27.30;99.90
21522;DHT22;10922;45.572;10.002;2023-04-03T16:06:37;28.40;99.90
21522;DHT22;10922;45.572;10.002;2023-04-03T16:09:03;29.00;99.90
21522;DHT22;10922;45.572;10.002;2023-04-03T16:11:29;29.90;99.90
21522;DHT22;10922;45.572;10.002;2023-04-03T16:13:55;30.80;99.90
21522;DHT22;10922;45.572;10.002;2023-04-03T16:16:22;31.20;99.90
21522;DHT22;10922;45.572;10.002;2023-04-03T16:18:49;30.20;99.90
21522;DHT22;10922;45.572;10.002;2023-04-03T16:21:15;30.20;99.90
21522;DHT22;10922;45.572;10.002;2023-04-03T16:23:42;28.10;99.90
21522;DHT22;10922;45.572;10.002;2023-04-03T16:26:09;24.50;99.90
21522;DHT22;10922;45.572;10.002;2023-04-03T16:28:35;22.80;99.90
21522;DHT22;10922;45.572;10.002;2023-04-03T16:31:01;21.40;99.90
21522;DHT22;10922;45.572;10.002;2023-04-03T16:33:28;21.50;99.90
21522;DHT22;10922;45.572;10.002;2023-04-03T16:35:54;21.20;99.90
21522;DHT22;10922;45.572;10.002;2023-04-03T16:38:22;20.20;99.90
21522;DHT22;10922;45.572;10.002;2023-04-03T16:40:49;19.80;99.90
21522;DHT22;10922;45.572;10.002;2023-04-03T16:43:15;19.20;99.90
21522;DHT22;10922;45.572;10.002;2023-04-03T16:45:42;18.70;99.90
21522;DHT22;10922;45.572;10.002;2023-04-03T16:48:07;19.60;99.90
21522;DHT22;10922;45.572;10.002;2023-04-03T16:50:33;19.90;99.90
21522;DHT22;10922;45.572;10.002;2023-04-03T16:52:59;18.80;99.90
21522;DHT22;10922;45.572;10.002;2023-04-03T16:55:25;18.80;99.90
21522;DHT22;10922;45.572;10.002;2023-04-03T16:57:53;18.50;99.90
21522;DHT22;10922;45.572;10.002;2023-04-03T17:00:19;18.30;99.90
21522;DHT22;10922;45.572;10.002;2023-04-03T17:02:45;17.80;99.90
21522;DHT22;10922;45.572;10.002;2023-04-03T17:05:11;17.40;99.90
21522;DHT22;10922;45.572;10.002;2023-04-03T17:07:36;17.40;99.90
21522;DHT22;10922;45.572;10.002;2023-04-03T17:10:02;17.00;99.90
21522;DHT22;10922;45.572;10.002;2023-04-03T17:12:28;16.60;99.90
21522;DHT22;10922;45.572;10.002;2023-04-03T17:14:53;16.30;99.90
21522;DHT22;10922;45.572;10.002;2023-04-03T17:17:21;16.20;99.90
21522;DHT22;10922;45.572;10.002;2023-04-03T17:19:48;16.20;99.90
21522;DHT22;10922;45.572;10.002;2023-04-03T17:22:14;15.90;99.90
21522;DHT22;10922;45.572;10.002;2023-04-03T17:24:42;15.60;99.90
21522;DHT22;10922;45.572;10.002;2023-04-03T17:27:07;15.50;99.90
21522;DHT22;10922;45.572;10.002;2023-04-03T17:29:33;15.30;99.90
21522;DHT22;10922;45.572;10.002;2023-04-03T17:31:59;15.20;99.90
21522;DHT22;10922;45.572;10.002;2023-04-03T17:34:24;15.10;99.90
21522;DHT22;10922;45.572;10.002;2023-04-03T17:36:50;14.90;99.90
21522;DHT22;10922;45.572;10.002;2023-04-03T17:39:16;14.80;99.90
21522;DHT22;10922;45.572;10.002;2023-04-03T17:41:42;14.80;99.90
21522;DHT22;10922;45.572;10.002;2023-04-03T17:44:10;14.80;99.90
21522;DHT22;10922;45.572;10.002;2023-04-03T17:46:39;14.70;99.90
21522;DHT22;10922;45.572;10.002;2023-04-03T17:49:05;14.50;99.90
21522;DHT22;10922;45.572;10.002;2023-04-03T17:51:30;14.40;99.90
21522;DHT22;10922;45.572;10.002;2023-04-03T17:53:59;14.30;99.90
21522;DHT22;10922;45.572;10.002;2023-04-03T17:56:25;14.20;99.90
21522;DHT22;10922;45.572;10.002;2023-04-03T17:58:53;14.10;99.90